Time,TemperatureF,DewpointF,PressureIn,WindDirection,WindDirectionDegrees,WindSpeedMPH,WindSpeedGustMPH,Humidity,HourlyPrecipIn,Conditions,Clouds,dailyrainin,SoftwareType,DateUTC
2013-12-13 01:52:00,11.0,8.0,29.83,NNE,13,5.0,11.0,89,0.00,,,0.00,,2013-12-13 08:52:00,
2013-12-13 02:12:00,11.0,8.0,29.84,NNE,15,6.0,9.0,89,0.00,,,0.00,,2013-12-13 09:12:00,
2013-12-13 02:22:00,11.0,8.0,29.84,NNE,19,5.0,10.0,89,0.00,,,0.00,,2013-12-13 09:22:00,
2013-12-13 02:43:00,11.0,8.0,29.84,NNE,13,4.0,12.0,89,0.00,,,0.00,,2013-12-13 09:43:00,
2013-12-13 02:53:00,11.0,8.0,29.84,NNE,13,4.0,12.0,89,0.00,,,0.00,,2013-12-13 09:53:00,
2013-12-13 03:03:00,11.0,8.0,29.84,NNE,13,4.0,12.0,89,0.00,,,0.00,,2013-12-13 10:03:00,
2013-12-13 03:12:00,11.0,8.0,29.84,NNE,13,4.0,12.0,89,0.00,,,0.00,,2013-12-13 10:12:00,
2013-12-13 05:42:00,12.0,9.0,29.89,NNE,13,5.0,10.0,89,0.00,,,0.00,,2013-12-13 12:42:00,
2013-12-13 05:53:00,12.0,9.0,29.90,NNE,17,4.0,7.0,89,0.00,,,0.00,,2013-12-13 12:53:00,
2013-12-13 06:12:00,11.0,8.0,29.91,NNE,18,5.0,9.0,89,0.00,,,0.00,,2013-12-13 13:12:00,
2013-12-13 06:22:00,11.0,8.0,29.91,NNE,18,5.0,9.0,89,0.00,,,0.00,,2013-12-13 13:22:00,
2013-12-13 06:32:00,11.0,8.0,29.91,NNE,18,5.0,9.0,89,0.00,,,0.00,,2013-12-13 13:32:00,
2013-12-13 06:42:00,11.0,8.0,29.91,NNE,18,5.0,9.0,89,0.00,,,0.00,,2013-12-13 13:42:00,
2013-12-13 08:54:00,13.0,10.0,29.98,NNE,31,3.0,9.0,89,0.00,,,0.00,,2013-12-13 15:54:00,
2013-12-13 09:13:00,13.0,10.0,29.98,NNE,31,2.0,8.0,89,0.00,,,0.00,,2013-12-13 16:13:00,
2013-12-13 09:23:00,13.0,10.0,29.98,NNE,30,1.0,8.0,89,0.00,,,0.00,,2013-12-13 16:23:00,
2013-12-13 09:43:00,13.0,10.0,30.00,NNE,30,1.0,7.0,89,0.00,,,0.00,,2013-12-13 16:43:00,
2013-12-13 09:53:00,13.0,10.0,30.00,NNE,30,2.0,8.0,89,0.00,,,0.00,,2013-12-13 16:53:00,
2013-12-13 10:02:00,13.0,10.0,30.00,NNE,30,2.0,8.0,89,0.00,,,0.00,,2013-12-13 17:02:00,
2013-12-13 10:12:00,13.0,10.0,30.00,NNE,30,2.0,8.0,89,0.00,,,0.00,,2013-12-13 17:12:00,
2013-12-13 10:22:00,13.0,10.0,30.00,NNE,30,2.0,8.0,89,0.00,,,0.00,,2013-12-13 17:22:00,
2013-12-13 12:42:00,12.0,8.0,30.03,NNE,13,5.0,11.0,83,0.00,,,0.00,,2013-12-13 19:42:00,
2013-12-13 12:52:00,11.0,7.0,30.04,NNE,15,6.0,11.0,82,0.00,,,0.00,,2013-12-13 19:52:00,
2013-12-13 13:11:00,11.0,7.0,30.04,North,11,6.0,10.0,82,0.00,,,0.00,,2013-12-13 20:11:00,
2013-12-13 13:22:00,11.0,7.0,30.04,NNE,19,6.0,10.0,82,0.00,,,0.00,,2013-12-13 20:22:00,
2013-12-13 13:32:00,11.0,7.0,30.04,NNE,19,6.0,10.0,82,0.00,,,0.00,,2013-12-13 20:32:00,
2013-12-13 13:42:00,11.0,7.0,30.04,NNE,19,6.0,10.0,82,0.00,,,0.00,,2013-12-13 20:42:00,
2013-12-13 13:52:00,11.0,7.0,30.04,NNE,19,6.0,10.0,82,0.00,,,0.00,,2013-12-13 20:52:00,
2013-12-13 16:12:00,10.0,6.0,30.08,NNE,15,3.0,7.0,82,0.00,,,0.00,,2013-12-13 23:12:00,
2013-12-13 16:22:00,9.0,5.0,30.09,NNE,15,0.0,4.0,82,0.00,,,0.00,,2013-12-13 23:22:00,
2013-12-13 16:42:00,9.0,5.0,30.09,NNE,16,0.0,3.0,82,0.00,,,0.00,,2013-12-13 23:42:00,
2013-12-13 16:53:00,8.0,4.0,30.11,NNE,15,0.0,2.0,82,0.00,,,0.00,,2013-12-13 23:53:00,
2013-12-13 17:02:00,8.0,4.0,30.11,NNE,15,0.0,2.0,82,0.00,,,0.00,,2013-12-14 00:02:00,
2013-12-13 17:11:00,8.0,4.0,30.11,NNE,15,0.0,2.0,82,0.00,,,0.00,,2013-12-14 00:11:00,
2013-12-13 17:21:00,8.0,4.0,30.11,NNE,15,0.0,2.0,82,0.00,,,0.00,,2013-12-14 00:21:00,
2013-12-13 19:42:00,4.0,1.0,30.14,NNE,15,2.0,4.0,85,0.00,,,0.00,,2013-12-14 02:42:00,
2013-12-13 19:52:00,4.0,1.0,30.15,NNE,15,2.0,3.0,85,0.00,,,0.00,,2013-12-14 02:52:00,
2013-12-13 20:12:00,4.0,1.0,30.15,NNE,15,0.0,4.0,85,0.00,,,0.00,,2013-12-14 03:12:00,
2013-12-13 20:22:00,3.0,0.0,30.16,NNE,15,4.0,5.0,85,0.00,,,0.00,,2013-12-14 03:22:00,
2013-12-13 20:43:00,2.0,-2.0,30.16,NNE,15,2.0,4.0,84,0.00,,,0.00,,2013-12-14 03:43:00,
2013-12-13 20:54:00,2.0,-2.0,30.16,NNE,15,2.0,4.0,84,0.00,,,0.00,,2013-12-14 03:54:00,
2013-12-13 21:03:00,2.0,-2.0,30.16,NNE,15,2.0,4.0,84,0.00,,,0.00,,2013-12-14 04:03:00,
2013-12-13 21:13:00,2.0,-2.0,30.16,NNE,15,2.0,4.0,84,0.00,,,0.00,,2013-12-14 04:13:00,
2013-12-13 23:22:00,2.0,-1.0,30.18,NNE,15,0.0,0.0,87,0.00,,,0.00,,2013-12-14 06:22:00,
2013-12-13 23:42:00,1.0,-2.0,30.18,NNE,15,0.0,0.0,86,0.00,,,0.00,,2013-12-14 06:42:00,
2013-12-13 23:52:00,1.0,-2.0,30.18,NNE,15,0.0,0.0,86,0.00,,,0.00,,2013-12-14 06:52:00,